Leader, Canada
Current Conditions -  °F | °C
As of 6:00 PM on Monday 20 Oct 2014 (Local Time) from CYKY Reporting Station
Few Clouds Few Clouds  
Wind Chill: 63°   Ceiling: Unl
Heat Index: 63°   Visibility: 15mi
Dew Point: 36°   Wind: 7mph
Humidity: 37%   Direction: 130°SE
Pressure: 29.64"   Gusts: NA
Location:  50.89°N, 109.54°W
Report Text: CYKY 210000Z 13006KT 15SM FEW250 17/02 A2964 RMK CI1 CI TR SLP044 DENSITY ALT 3300FT
Loading
Personal Weather Stations






























Interactive Weather Map
Tropical Storm Tracking
New forecast layout! Learn more

10-Day Weather Forecast

Advertisements
Track Severe Weather on mobile